sensor_id;sensor_type;location;lat;lon;timestamp;temperature;humidity
4054;DHT22;2042;47.956;9.222;2023-03-23T00:00:05;5.60;23.40
4054;DHT22;2042;47.956;9.222;2023-03-23T00:02:31;5.60;23.60
4054;DHT22;2042;47.956;9.222;2023-03-23T00:05:04;5.60;23.70
4054;DHT22;2042;47.956;9.222;2023-03-23T00:07:32;5.60;23.80
4054;DHT22;2042;47.956;9.222;2023-03-23T00:09:59;5.60;24.00
4054;DHT22;2042;47.956;9.222;2023-03-23T00:12:29;5.60;24.40
4054;DHT22;2042;47.956;9.222;2023-03-23T00:15:03;5.60;24.80
4054;DHT22;2042;47.956;9.222;2023-03-23T00:17:30;5.60;25.00
4054;DHT22;2042;47.956;9.222;2023-03-23T00:19:59;5.60;25.40
4054;DHT22;2042;47.956;9.222;2023-03-23T00:22:27;5.60;25.70
4054;DHT22;2042;47.956;9.222;2023-03-23T00:24:54;5.60;26.10
4054;DHT22;2042;47.956;9.222;2023-03-23T00:27:20;5.70;26.60
4054;DHT22;2042;47.956;9.222;2023-03-23T00:29:50;5.70;26.80
4054;DHT22;2042;47.956;9.222;2023-03-23T00:32:21;5.80;26.80
4054;DHT22;2042;47.956;9.222;2023-03-23T00:34:54;5.80;26.50
4054;DHT22;2042;47.956;9.222;2023-03-23T00:37:20;5.80;26.40
4054;DHT22;2042;47.956;9.222;2023-03-23T00:39:46;5.90;27.20
4054;DHT22;2042;47.956;9.222;2023-03-23T00:42:14;5.90;26.80
4054;DHT22;2042;47.956;9.222;2023-03-23T00:44:40;5.90;26.60
4054;DHT22;2042;47.956;9.222;2023-03-23T00:47:06;5.90;25.80
4054;DHT22;2042;47.956;9.222;2023-03-23T00:49:34;5.90;25.30
4054;DHT22;2042;47.956;9.222;2023-03-23T00:52:03;6.00;25.20
4054;DHT22;2042;47.956;9.222;2023-03-23T00:54:29;6.00;25.30
4054;DHT22;2042;47.956;9.222;2023-03-23T00:56:56;6.10;25.30
4054;DHT22;2042;47.956;9.222;2023-03-23T00:59:21;6.10;25.40
4054;DHT22;2042;47.956;9.222;2023-03-23T01:01:47;6.10;25.20
4054;DHT22;2042;47.956;9.222;2023-03-23T01:04:14;6.20;25.00
4054;DHT22;2042;47.956;9.222;2023-03-23T01:06:42;6.20;25.10
4054;DHT22;2042;47.956;9.222;2023-03-23T01:09:14;6.20;25.40
4054;DHT22;2042;47.956;9.222;2023-03-23T01:11:45;6.20;25.50
4054;DHT22;2042;47.956;9.222;2023-03-23T01:14:12;6.30;25.70
4054;DHT22;2042;47.956;9.222;2023-03-23T01:16:39;6.30;25.60
4054;DHT22;2042;47.956;9.222;2023-03-23T01:19:04;6.30;25.50
4054;DHT22;2042;47.956;9.222;2023-03-23T01:21:30;6.20;25.50
4054;DHT22;2042;47.956;9.222;2023-03-23T01:23:56;6.20;25.50
4054;DHT22;2042;47.956;9.222;2023-03-23T01:26:24;6.20;25.70
4054;DHT22;2042;47.956;9.222;2023-03-23T01:28:50;6.10;25.60
4054;DHT22;2042;47.956;9.222;2023-03-23T01:31:18;6.10;25.80
4054;DHT22;2042;47.956;9.222;2023-03-23T01:33:44;6.10;26.40
4054;DHT22;2042;47.956;9.222;2023-03-23T01:36:13;6.10;26.90
4054;DHT22;2042;47.956;9.222;2023-03-23T01:38:39;6.10;27.40
4054;DHT22;2042;47.956;9.222;2023-03-23T01:41:05;6.10;27.80
4054;DHT22;2042;47.956;9.222;2023-03-23T01:43:31;6.10;27.70
4054;DHT22;2042;47.956;9.222;2023-03-23T01:45:57;6.00;27.50
4054;DHT22;2042;47.956;9.222;2023-03-23T01:48:32;6.00;28.20
4054;DHT22;2042;47.956;9.222;2023-03-23T01:53:37;6.20;28.30
4054;DHT22;2042;47.956;9.222;2023-03-23T01:56:04;6.20;28.20
4054;DHT22;2042;47.956;9.222;2023-03-23T01:58:32;6.30;28.20
4054;DHT22;2042;47.956;9.222;2023-03-23T02:01:03;6.40;28.80
4054;DHT22;2042;47.956;9.222;2023-03-23T02:03:30;6.40;28.10
4054;DHT22;2042;47.956;9.222;2023-03-23T02:05:57;6.40;27.70
4054;DHT22;2042;47.956;9.222;2023-03-23T02:08:27;6.50;27.60
4054;DHT22;2042;47.956;9.222;2023-03-23T02:10:54;6.50;27.30
4054;DHT22;2042;47.956;9.222;2023-03-23T02:13:20;6.50;27.30
4054;DHT22;2042;47.956;9.222;2023-03-23T02:16:04;6.60;27.50
4054;DHT22;2042;47.956;9.222;2023-03-23T02:21:16;6.70;27.20
4054;DHT22;2042;47.956;9.222;2023-03-23T02:26:47;6.80;27.70
4054;DHT22;2042;47.956;9.222;2023-03-23T02:34:57;6.90;28.20
4054;DHT22;2042;47.956;9.222;2023-03-23T02:37:29;7.00;29.00
4054;DHT22;2042;47.956;9.222;2023-03-23T02:40:02;7.10;29.80
4054;DHT22;2042;47.956;9.222;2023-03-23T02:42:36;7.10;29.60
4054;DHT22;2042;47.956;9.222;2023-03-23T02:45:06;7.10;29.60
4054;DHT22;2042;47.956;9.222;2023-03-23T02:47:35;7.20;29.90
4054;DHT22;2042;47.956;9.222;2023-03-23T02:50:01;7.40;29.30
4054;DHT22;2042;47.956;9.222;2023-03-23T02:52:29;7.60;28.00
4054;DHT22;2042;47.956;9.222;2023-03-23T02:54:56;7.90;24.40
4054;DHT22;2042;47.956;9.222;2023-03-23T02:57:25;8.30;10.50
4054;DHT22;2042;47.956;9.222;2023-03-23T02:59:52;8.60;1.00
4054;DHT22;2042;47.956;9.222;2023-03-23T03:16:01;9.30;1.00
4054;DHT22;2042;47.956;9.222;2023-03-23T03:18:45;9.20;1.00
4054;DHT22;2042;47.956;9.222;2023-03-23T03:21:13;9.00;1.00
4054;DHT22;2042;47.956;9.222;2023-03-23T03:23:42;8.90;1.00
4054;DHT22;2042;47.956;9.222;2023-03-23T03:26:11;8.80;1.00
4054;DHT22;2042;47.956;9.222;2023-03-23T03:28:38;8.70;1.00
4054;DHT22;2042;47.956;9.222;2023-03-23T03:31:05;8.60;1.00
4054;DHT22;2042;47.956;9.222;2023-03-23T03:33:32;8.60;1.00
4054;DHT22;2042;47.956;9.222;2023-03-23T03:36:03;8.60;1.00
4054;DHT22;2042;47.956;9.222;2023-03-23T03:38:41;8.60;1.00
4054;DHT22;2042;47.956;9.222;2023-03-23T03:41:08;8.70;1.00
4054;DHT22;2042;47.956;9.222;2023-03-23T03:43:33;8.80;1.00
4054;DHT22;2042;47.956;9.222;2023-03-23T03:46:00;8.90;1.00
4054;DHT22;2042;47.956;9.222;2023-03-23T03:48:26;9.10;1.00
4054;DHT22;2042;47.956;9.222;2023-03-23T03:50:52;9.10;1.00
4054;DHT22;2042;47.956;9.222;2023-03-23T03:53:18;9.20;1.00
4054;DHT22;2042;47.956;9.222;2023-03-23T03:55:43;9.20;1.00
4054;DHT22;2042;47.956;9.222;2023-03-23T03:58:14;9.20;1.00
4054;DHT22;2042;47.956;9.222;2023-03-23T04:00:39;9.30;1.00
4054;DHT22;2042;47.956;9.222;2023-03-23T04:03:06;9.30;1.00
4054;DHT22;2042;47.956;9.222;2023-03-23T04:05:32;9.30;1.00
4054;DHT22;2042;47.956;9.222;2023-03-23T04:07:58;9.20;1.00
4054;DHT22;2042;47.956;9.222;2023-03-23T04:10:27;9.10;1.00
4054;DHT22;2042;47.956;9.222;2023-03-23T04:12:54;8.90;1.00
4054;DHT22;2042;47.956;9.222;2023-03-23T04:15:20;8.80;1.00
4054;DHT22;2042;47.956;9.222;2023-03-23T04:17:45;8.80;1.00
4054;DHT22;2042;47.956;9.222;2023-03-23T04:20:12;8.80;1.00
4054;DHT22;2042;47.956;9.222;2023-03-23T04:22:48;8.80;1.00
4054;DHT22;2042;47.956;9.222;2023-03-23T04:25:19;8.90;1.00
4054;DHT22;2042;47.956;9.222;2023-03-23T04:27:50;9.00;1.00
4054;DHT22;2042;47.956;9.222;2023-03-23T04:30:20;9.10;1.00
4054;DHT22;2042;47.956;9.222;2023-03-23T04:32:48;9.30;1.00
4054;DHT22;2042;47.956;9.222;2023-03-23T04:35:17;9.40;1.00
4054;DHT22;2042;47.956;9.222;2023-03-23T04:37:43;9.50;1.00
4054;DHT22;2042;47.956;9.222;2023-03-23T04:40:10;9.50;1.00
4054;DHT22;2042;47.956;9.222;2023-03-23T04:42:41;9.50;1.00
4054;DHT22;2042;47.956;9.222;2023-03-23T04:45:12;9.50;1.00
4054;DHT22;2042;47.956;9.222;2023-03-23T04:47:38;9.50;1.00
4054;DHT22;2042;47.956;9.222;2023-03-23T04:50:12;9.60;1.00
4054;DHT22;2042;47.956;9.222;2023-03-23T04:52:38;9.60;1.00
4054;DHT22;2042;47.956;9.222;2023-03-23T04:55:07;9.50;1.00
4054;DHT22;2042;47.956;9.222;2023-03-23T04:57:34;9.60;1.00
4054;DHT22;2042;47.956;9.222;2023-03-23T05:00:03;9.50;1.00
4054;DHT22;2042;47.956;9.222;2023-03-23T05:02:37;9.40;1.00
4054;DHT22;2042;47.956;9.222;2023-03-23T05:05:06;9.30;1.00
4054;DHT22;2042;47.956;9.222;2023-03-23T05:07:32;9.20;1.00
4054;DHT22;2042;47.956;9.222;2023-03-23T05:09:57;9.20;1.00
4054;DHT22;2042;47.956;9.222;2023-03-23T05:12:23;9.10;1.00
4054;DHT22;2042;47.956;9.222;2023-03-23T05:14:48;8.90;1.00
4054;DHT22;2042;47.956;9.222;2023-03-23T05:17:15;8.80;1.00
4054;DHT22;2042;47.956;9.222;2023-03-23T05:19:43;8.70;1.00
4054;DHT22;2042;47.956;9.222;2023-03-23T05:22:17;8.60;1.00
4054;DHT22;2042;47.956;9.222;2023-03-23T05:24:43;8.60;1.00
4054;DHT22;2042;47.956;9.222;2023-03-23T05:27:10;8.60;1.00
4054;DHT22;2042;47.956;9.222;2023-03-23T05:29:36;8.60;1.00
4054;DHT22;2042;47.956;9.222;2023-03-23T05:32:05;8.60;1.00
4054;DHT22;2042;47.956;9.222;2023-03-23T05:34:35;8.50;1.00
4054;DHT22;2042;47.956;9.222;2023-03-23T05:37:02;8.50;1.00
4054;DHT22;2042;47.956;9.222;2023-03-23T05:39:29;8.50;1.00
4054;DHT22;2042;47.956;9.222;2023-03-23T05:41:55;8.60;1.00
4054;DHT22;2042;47.956;9.222;2023-03-23T05:44:20;8.70;1.00
4054;DHT22;2042;47.956;9.222;2023-03-23T05:46:46;8.90;1.00
4054;DHT22;2042;47.956;9.222;2023-03-23T05:49:13;9.00;1.00
4054;DHT22;2042;47.956;9.222;2023-03-23T05:51:39;9.10;1.00
4054;DHT22;2042;47.956;9.222;2023-03-23T05:54:05;9.20;1.00
4054;DHT22;2042;47.956;9.222;2023-03-23T05:56:31;9.30;1.00
4054;DHT22;2042;47.956;9.222;2023-03-23T05:58:57;9.40;1.00
4054;DHT22;2042;47.956;9.222;2023-03-23T06:01:24;9.40;1.00
4054;DHT22;2042;47.956;9.222;2023-03-23T06:03:50;9.40;1.00
4054;DHT22;2042;47.956;9.222;2023-03-23T06:06:19;9.40;1.00
4054;DHT22;2042;47.956;9.222;2023-03-23T06:08:45;9.40;1.00
4054;DHT22;2042;47.956;9.222;2023-03-23T06:11:11;9.40;1.00
4054;DHT22;2042;47.956;9.222;2023-03-23T06:13:37;9.40;1.00
4054;DHT22;2042;47.956;9.222;2023-03-23T06:16:03;9.40;1.00
4054;DHT22;2042;47.956;9.222;2023-03-23T06:18:29;9.50;1.00
4054;DHT22;2042;47.956;9.222;2023-03-23T06:20:59;9.50;1.00
4054;DHT22;2042;47.956;9.222;2023-03-23T06:23:25;9.60;1.00
4054;DHT22;2042;47.956;9.222;2023-03-23T06:25:54;9.70;1.00
4054;DHT22;2042;47.956;9.222;2023-03-23T06:28:22;9.80;1.00
4054;DHT22;2042;47.956;9.222;2023-03-23T06:30:48;9.80;1.00
4054;DHT22;2042;47.956;9.222;2023-03-23T06:33:13;10.00;1.00
4054;DHT22;2042;47.956;9.222;2023-03-23T06:35:39;10.10;1.00
4054;DHT22;2042;47.956;9.222;2023-03-23T06:40:31;10.50;1.00
4054;DHT22;2042;47.956;9.222;2023-03-23T06:42:57;10.70;1.00
4054;DHT22;2042;47.956;9.222;2023-03-23T06:45:24;10.90;1.00
4054;DHT22;2042;47.956;9.222;2023-03-23T06:47:50;11.00;1.00
4054;DHT22;2042;47.956;9.222;2023-03-23T06:50:16;11.00;1.00
4054;DHT22;2042;47.956;9.222;2023-03-23T06:52:46;11.00;1.00
4054;DHT22;2042;47.956;9.222;2023-03-23T06:55:12;11.00;1.00
4054;DHT22;2042;47.956;9.222;2023-03-23T06:57:38;11.10;1.00
4054;DHT22;2042;47.956;9.222;2023-03-23T07:00:04;11.10;1.00
4054;DHT22;2042;47.956;9.222;2023-03-23T07:02:33;11.10;1.00
4054;DHT22;2042;47.956;9.222;2023-03-23T07:04:59;11.10;1.00
4054;DHT22;2042;47.956;9.222;2023-03-23T07:07:25;11.10;1.00
4054;DHT22;2042;47.956;9.222;2023-03-23T07:09:51;11.10;1.00
4054;DHT22;2042;47.956;9.222;2023-03-23T07:12:17;11.30;1.00
4054;DHT22;2042;47.956;9.222;2023-03-23T07:14:43;11.40;1.00
4054;DHT22;2042;47.956;9.222;2023-03-23T07:17:09;11.60;1.00
4054;DHT22;2042;47.956;9.222;2023-03-23T07:19:34;11.80;1.00
4054;DHT22;2042;47.956;9.222;2023-03-23T07:22:01;12.00;1.00
4054;DHT22;2042;47.956;9.222;2023-03-23T07:24:27;12.10;1.00
4054;DHT22;2042;47.956;9.222;2023-03-23T07:26:52;12.20;1.00
4054;DHT22;2042;47.956;9.222;2023-03-23T07:29:18;12.30;1.00
4054;DHT22;2042;47.956;9.222;2023-03-23T07:31:44;12.50;1.00
4054;DHT22;2042;47.956;9.222;2023-03-23T07:34:09;12.60;1.00
4054;DHT22;2042;47.956;9.222;2023-03-23T07:36:35;13.00;1.00
4054;DHT22;2042;47.956;9.222;2023-03-23T07:41:33;14.80;1.00
4054;DHT22;2042;47.956;9.222;2023-03-23T07:56:13;15.70;1.00
4054;DHT22;2042;47.956;9.222;2023-03-23T07:58:41;15.70;1.00
4054;DHT22;2042;47.956;9.222;2023-03-23T08:01:07;15.60;1.00
4054;DHT22;2042;47.956;9.222;2023-03-23T08:03:33;15.40;1.00
4054;DHT22;2042;47.956;9.222;2023-03-23T08:05:59;15.40;1.00
4054;DHT22;2042;47.956;9.222;2023-03-23T08:08:25;15.40;1.00
4054;DHT22;2042;47.956;9.222;2023-03-23T08:10:51;15.60;1.00
4054;DHT22;2042;47.956;9.222;2023-03-23T08:13:17;15.70;1.00
4054;DHT22;2042;47.956;9.222;2023-03-23T08:15:43;15.70;1.00
4054;DHT22;2042;47.956;9.222;2023-03-23T08:18:10;15.80;1.00
4054;DHT22;2042;47.956;9.222;2023-03-23T08:20:36;16.00;1.00
4054;DHT22;2042;47.956;9.222;2023-03-23T08:23:02;16.20;1.00
4054;DHT22;2042;47.956;9.222;2023-03-23T08:25:29;16.20;1.00
4054;DHT22;2042;47.956;9.222;2023-03-23T08:27:57;16.00;1.00
4054;DHT22;2042;47.956;9.222;2023-03-23T08:30:23;15.80;1.00
4054;DHT22;2042;47.956;9.222;2023-03-23T08:32:52;15.70;1.00
4054;DHT22;2042;47.956;9.222;2023-03-23T08:35:18;15.70;1.00
4054;DHT22;2042;47.956;9.222;2023-03-23T08:37:45;15.60;1.00
4054;DHT22;2042;47.956;9.222;2023-03-23T08:40:13;15.60;1.00
4054;DHT22;2042;47.956;9.222;2023-03-23T08:42:42;15.80;1.00
4054;DHT22;2042;47.956;9.222;2023-03-23T08:45:10;16.00;1.00
4054;DHT22;2042;47.956;9.222;2023-03-23T08:47:37;16.00;1.00
4054;DHT22;2042;47.956;9.222;2023-03-23T08:50:05;16.00;1.00
4054;DHT22;2042;47.956;9.222;2023-03-23T08:52:31;16.00;1.00
4054;DHT22;2042;47.956;9.222;2023-03-23T08:54:57;16.10;1.00
4054;DHT22;2042;47.956;9.222;2023-03-23T08:57:25;16.10;1.00
4054;DHT22;2042;47.956;9.222;2023-03-23T08:59:51;16.10;1.00
4054;DHT22;2042;47.956;9.222;2023-03-23T09:02:20;16.00;1.00
4054;DHT22;2042;47.956;9.222;2023-03-23T09:04:46;16.10;1.00
4054;DHT22;2042;47.956;9.222;2023-03-23T09:07:12;16.20;1.00
4054;DHT22;2042;47.956;9.222;2023-03-23T09:09:40;16.30;1.00
4054;DHT22;2042;47.956;9.222;2023-03-23T09:12:07;16.70;1.00
4054;DHT22;2042;47.956;9.222;2023-03-23T09:14:34;17.10;1.00
4054;DHT22;2042;47.956;9.222;2023-03-23T09:17:01;17.40;1.00
4054;DHT22;2042;47.956;9.222;2023-03-23T09:19:29;17.70;1.00
4054;DHT22;2042;47.956;9.222;2023-03-23T09:24:20;18.90;1.00
4054;DHT22;2042;47.956;9.222;2023-03-23T09:26:46;19.40;1.00
4054;DHT22;2042;47.956;9.222;2023-03-23T09:29:23;19.60;1.00
4054;DHT22;2042;47.956;9.222;2023-03-23T09:31:49;19.70;1.00
4054;DHT22;2042;47.956;9.222;2023-03-23T09:34:14;19.40;1.00
4054;DHT22;2042;47.956;9.222;2023-03-23T09:36:43;19.10;1.00
4054;DHT22;2042;47.956;9.222;2023-03-23T09:39:10;18.60;1.00
4054;DHT22;2042;47.956;9.222;2023-03-23T09:47:14;19.00;1.00
4054;DHT22;2042;47.956;9.222;2023-03-23T09:50:06;19.00;1.00
4054;DHT22;2042;47.956;9.222;2023-03-23T09:52:42;19.00;1.00
4054;DHT22;2042;47.956;9.222;2023-03-23T09:55:13;18.90;1.00
4054;DHT22;2042;47.956;9.222;2023-03-23T09:58:29;19.00;1.00
4054;DHT22;2042;47.956;9.222;2023-03-23T10:01:14;19.00;1.00
4054;DHT22;2042;47.956;9.222;2023-03-23T10:03:42;19.10;1.00
4054;DHT22;2042;47.956;9.222;2023-03-23T10:06:15;19.10;1.00
4054;DHT22;2042;47.956;9.222;2023-03-23T10:08:55;18.90;1.00
4054;DHT22;2042;47.956;9.222;2023-03-23T10:11:50;18.70;1.00
4054;DHT22;2042;47.956;9.222;2023-03-23T10:14:36;18.40;1.00
4054;DHT22;2042;47.956;9.222;2023-03-23T10:17:13;18.10;1.00
4054;DHT22;2042;47.956;9.222;2023-03-23T10:19:55;17.80;1.00
4054;DHT22;2042;47.956;9.222;2023-03-23T10:22:32;17.60;1.00
4054;DHT22;2042;47.956;9.222;2023-03-23T10:27:49;17.30;1.00
4054;DHT22;2042;47.956;9.222;2023-03-23T10:30:26;17.40;1.00
4054;DHT22;2042;47.956;9.222;2023-03-23T10:32:58;17.70;1.00
4054;DHT22;2042;47.956;9.222;2023-03-23T10:35:32;18.10;1.00
4054;DHT22;2042;47.956;9.222;2023-03-23T10:38:06;18.30;1.00
4054;DHT22;2042;47.956;9.222;2023-03-23T10:40:43;18.30;1.00
4054;DHT22;2042;47.956;9.222;2023-03-23T10:43:09;18.30;1.00
4054;DHT22;2042;47.956;9.222;2023-03-23T10:45:35;18.20;1.00
4054;DHT22;2042;47.956;9.222;2023-03-23T10:48:17;18.20;1.00
4054;DHT22;2042;47.956;9.222;2023-03-23T10:50:50;18.50;1.00
4054;DHT22;2042;47.956;9.222;2023-03-23T10:53:22;19.20;1.00
4054;DHT22;2042;47.956;9.222;2023-03-23T10:55:49;19.50;1.00
4054;DHT22;2042;47.956;9.222;2023-03-23T10:58:29;19.30;1.00
4054;DHT22;2042;47.956;9.222;2023-03-23T11:00:56;19.00;1.00
4054;DHT22;2042;47.956;9.222;2023-03-23T11:03:41;18.70;1.00
4054;DHT22;2042;47.956;9.222;2023-03-23T11:06:09;18.50;1.00
4054;DHT22;2042;47.956;9.222;2023-03-23T11:08:54;18.40;1.00
4054;DHT22;2042;47.956;9.222;2023-03-23T11:11:28;18.30;1.00
4054;DHT22;2042;47.956;9.222;2023-03-23T11:14:02;18.30;1.00
4054;DHT22;2042;47.956;9.222;2023-03-23T11:16:31;18.40;1.00
4054;DHT22;2042;47.956;9.222;2023-03-23T11:18:59;18.60;1.00
4054;DHT22;2042;47.956;9.222;2023-03-23T11:21:25;18.70;1.00
4054;DHT22;2042;47.956;9.222;2023-03-23T11:23:55;18.80;1.00
4054;DHT22;2042;47.956;9.222;2023-03-23T11:26:34;18.80;1.00
4054;DHT22;2042;47.956;9.222;2023-03-23T11:29:14;18.80;1.00
4054;DHT22;2042;47.956;9.222;2023-03-23T11:34:32;18.70;1.00
4054;DHT22;2042;47.956;9.222;2023-03-23T11:37:07;18.50;1.00
4054;DHT22;2042;47.956;9.222;2023-03-23T11:39:47;18.50;1.00
4054;DHT22;2042;47.956;9.222;2023-03-23T11:42:24;18.70;1.00
4054;DHT22;2042;47.956;9.222;2023-03-23T11:50:55;19.40;1.00
4054;DHT22;2042;47.956;9.222;2023-03-23T11:53:31;19.30;1.00
4054;DHT22;2042;47.956;9.222;2023-03-23T11:58:32;19.10;1.00
4054;DHT22;2042;47.956;9.222;2023-03-23T12:09:47;18.50;1.00
4054;DHT22;2042;47.956;9.222;2023-03-23T12:19:52;19.80;1.00
4054;DHT22;2042;47.956;9.222;2023-03-23T12:27:55;20.30;1.00
4054;DHT22;2042;47.956;9.222;2023-03-23T12:36:11;19.80;1.00
4054;DHT22;2042;47.956;9.222;2023-03-23T12:41:16;20.20;1.00
4054;DHT22;2042;47.956;9.222;2023-03-23T12:43:52;20.20;1.00
4054;DHT22;2042;47.956;9.222;2023-03-23T12:49:12;19.90;1.00
4054;DHT22;2042;47.956;9.222;2023-03-23T12:54:24;19.40;1.00
4054;DHT22;2042;47.956;9.222;2023-03-23T12:57:07;19.10;1.00
4054;DHT22;2042;47.956;9.222;2023-03-23T12:59:39;19.10;1.00
4054;DHT22;2042;47.956;9.222;2023-03-23T13:02:22;19.10;1.00
4054;DHT22;2042;47.956;9.222;2023-03-23T13:05:14;19.10;1.00
4054;DHT22;2042;47.956;9.222;2023-03-23T13:07:52;19.10;1.00
4054;DHT22;2042;47.956;9.222;2023-03-23T13:10:24;18.90;1.00
4054;DHT22;2042;47.956;9.222;2023-03-23T13:12:52;18.70;1.00
4054;DHT22;2042;47.956;9.222;2023-03-23T13:18:37;18.80;1.00
4054;DHT22;2042;47.956;9.222;2023-03-23T13:24:25;18.40;1.00
4054;DHT22;2042;47.956;9.222;2023-03-23T13:26:53;18.20;1.00
4054;DHT22;2042;47.956;9.222;2023-03-23T13:29:24;17.80;1.00
4054;DHT22;2042;47.956;9.222;2023-03-23T13:31:51;17.40;1.00
4054;DHT22;2042;47.956;9.222;2023-03-23T13:34:21;17.00;1.00
4054;DHT22;2042;47.956;9.222;2023-03-23T13:37:02;16.80;1.00
4054;DHT22;2042;47.956;9.222;2023-03-23T13:40:18;16.80;1.00
4054;DHT22;2042;47.956;9.222;2023-03-23T13:42:26;17.00;1.00
4054;DHT22;2042;47.956;9.222;2023-03-23T13:49:51;17.70;1.00
4054;DHT22;2042;47.956;9.222;2023-03-23T13:52:23;17.80;1.00
4054;DHT22;2042;47.956;9.222;2023-03-23T13:54:50;17.70;1.00
4054;DHT22;2042;47.956;9.222;2023-03-23T13:57:37;17.60;1.00
4054;DHT22;2042;47.956;9.222;2023-03-23T14:00:34;17.50;1.00
4054;DHT22;2042;47.956;9.222;2023-03-23T14:03:15;17.50;1.00
4054;DHT22;2042;47.956;9.222;2023-03-23T14:05:49;17.50;1.00
4054;DHT22;2042;47.956;9.222;2023-03-23T14:10:58;17.30;1.00
4054;DHT22;2042;47.956;9.222;2023-03-23T14:14:00;17.20;1.00
4054;DHT22;2042;47.956;9.222;2023-03-23T14:16:44;17.00;1.00
4054;DHT22;2042;47.956;9.222;2023-03-23T14:21:51;16.50;1.00
4054;DHT22;2042;47.956;9.222;2023-03-23T14:24:20;16.30;1.00
4054;DHT22;2042;47.956;9.222;2023-03-23T14:26:48;16.10;1.00
4054;DHT22;2042;47.956;9.222;2023-03-23T14:29:18;16.00;1.00
4054;DHT22;2042;47.956;9.222;2023-03-23T14:31:53;15.90;1.00
4054;DHT22;2042;47.956;9.222;2023-03-23T14:34:20;15.90;1.00
4054;DHT22;2042;47.956;9.222;2023-03-23T14:36:47;15.90;1.00
4054;DHT22;2042;47.956;9.222;2023-03-23T14:39:29;15.90;1.00
4054;DHT22;2042;47.956;9.222;2023-03-23T14:42:04;16.00;1.00
4054;DHT22;2042;47.956;9.222;2023-03-23T14:44:33;16.10;1.00
4054;DHT22;2042;47.956;9.222;2023-03-23T14:47:19;16.10;1.00
4054;DHT22;2042;47.956;9.222;2023-03-23T14:49:46;16.20;1.00
4054;DHT22;2042;47.956;9.222;2023-03-23T14:52:17;16.30;1.00
4054;DHT22;2042;47.956;9.222;2023-03-23T14:54:44;16.40;1.00
4054;DHT22;2042;47.956;9.222;2023-03-23T14:57:27;16.40;1.00
4054;DHT22;2042;47.956;9.222;2023-03-23T14:59:53;16.40;1.00
4054;DHT22;2042;47.956;9.222;2023-03-23T15:04:56;16.50;1.00
4054;DHT22;2042;47.956;9.222;2023-03-23T15:07:26;16.50;1.00
4054;DHT22;2042;47.956;9.222;2023-03-23T15:09:54;16.40;1.00
4054;DHT22;2042;47.956;9.222;2023-03-23T15:12:30;16.40;1.00
4054;DHT22;2042;47.956;9.222;2023-03-23T15:15:02;16.30;1.00
4054;DHT22;2042;47.956;9.222;2023-03-23T15:17:30;16.30;1.00
4054;DHT22;2042;47.956;9.222;2023-03-23T15:19:56;16.20;1.00
4054;DHT22;2042;47.956;9.222;2023-03-23T15:22:28;16.10;1.00
4054;DHT22;2042;47.956;9.222;2023-03-23T15:25:19;15.90;1.00
4054;DHT22;2042;47.956;9.222;2023-03-23T15:30:50;15.60;1.00
4054;DHT22;2042;47.956;9.222;2023-03-23T15:33:17;15.50;1.00
4054;DHT22;2042;47.956;9.222;2023-03-23T15:35:49;15.30;1.00
4054;DHT22;2042;47.956;9.222;2023-03-23T15:38:39;15.20;1.00
4054;DHT22;2042;47.956;9.222;2023-03-23T15:41:06;15.10;1.00
4054;DHT22;2042;47.956;9.222;2023-03-23T15:43:51;15.10;1.00
4054;DHT22;2042;47.956;9.222;2023-03-23T15:51:21;15.10;1.00
4054;DHT22;2042;47.956;9.222;2023-03-23T15:53:48;15.10;1.00
4054;DHT22;2042;47.956;9.222;2023-03-23T15:56:15;15.10;1.00
4054;DHT22;2042;47.956;9.222;2023-03-23T15:58:41;15.10;1.00
4054;DHT22;2042;47.956;9.222;2023-03-23T16:01:27;15.10;1.00
4054;DHT22;2042;47.956;9.222;2023-03-23T16:04:19;15.20;1.00
4054;DHT22;2042;47.956;9.222;2023-03-23T16:06:46;15.20;1.00
4054;DHT22;2042;47.956;9.222;2023-03-23T16:09:14;15.20;1.00
4054;DHT22;2042;47.956;9.222;2023-03-23T16:11:40;15.20;1.00
4054;DHT22;2042;47.956;9.222;2023-03-23T16:14:06;15.20;1.00
4054;DHT22;2042;47.956;9.222;2023-03-23T16:16:37;15.10;1.00
4054;DHT22;2042;47.956;9.222;2023-03-23T16:19:03;15.00;1.00
4054;DHT22;2042;47.956;9.222;2023-03-23T16:21:30;14.90;1.00
4054;DHT22;2042;47.956;9.222;2023-03-23T16:23:55;14.80;1.00
4054;DHT22;2042;47.956;9.222;2023-03-23T16:26:21;14.80;1.00
4054;DHT22;2042;47.956;9.222;2023-03-23T16:28:47;14.70;1.00
4054;DHT22;2042;47.956;9.222;2023-03-23T16:31:13;14.70;1.00
4054;DHT22;2042;47.956;9.222;2023-03-23T16:33:38;14.60;1.00
4054;DHT22;2042;47.956;9.222;2023-03-23T16:36:04;14.50;1.00
4054;DHT22;2042;47.956;9.222;2023-03-23T16:38:30;14.50;1.00
4054;DHT22;2042;47.956;9.222;2023-03-23T16:40:56;14.50;1.00
4054;DHT22;2042;47.956;9.222;2023-03-23T16:43:21;14.40;1.00
4054;DHT22;2042;47.956;9.222;2023-03-23T16:45:47;14.40;1.00
4054;DHT22;2042;47.956;9.222;2023-03-23T16:48:14;14.30;1.00
4054;DHT22;2042;47.956;9.222;2023-03-23T16:50:41;14.20;1.00
4054;DHT22;2042;47.956;9.222;2023-03-23T16:53:08;14.20;1.00
4054;DHT22;2042;47.956;9.222;2023-03-23T16:55:35;14.10;1.00
4054;DHT22;2042;47.956;9.222;2023-03-23T16:58:01;14.10;1.00
4054;DHT22;2042;47.956;9.222;2023-03-23T17:00:26;14.00;1.00
4054;DHT22;2042;47.956;9.222;2023-03-23T17:02:54;13.90;1.00
4054;DHT22;2042;47.956;9.222;2023-03-23T17:05:23;13.90;1.00
4054;DHT22;2042;47.956;9.222;2023-03-23T17:07:49;13.80;1.00
4054;DHT22;2042;47.956;9.222;2023-03-23T17:10:15;13.80;1.00
4054;DHT22;2042;47.956;9.222;2023-03-23T17:12:42;13.70;1.00
4054;DHT22;2042;47.956;9.222;2023-03-23T17:15:09;13.60;1.00
4054;DHT22;2042;47.956;9.222;2023-03-23T17:17:36;13.60;1.00
4054;DHT22;2042;47.956;9.222;2023-03-23T17:20:02;13.60;1.00
4054;DHT22;2042;47.956;9.222;2023-03-23T17:22:28;13.50;1.00
4054;DHT22;2042;47.956;9.222;2023-03-23T17:24:53;13.50;1.00
4054;DHT22;2042;47.956;9.222;2023-03-23T17:27:21;13.40;1.00
4054;DHT22;2042;47.956;9.222;2023-03-23T17:29:47;13.30;1.00
4054;DHT22;2042;47.956;9.222;2023-03-23T17:32:13;13.20;1.00
4054;DHT22;2042;47.956;9.222;2023-03-23T17:34:39;13.20;1.00
4054;DHT22;2042;47.956;9.222;2023-03-23T17:37:05;13.10;1.00
4054;DHT22;2042;47.956;9.222;2023-03-23T17:39:31;13.00;1.00
4054;DHT22;2042;47.956;9.222;2023-03-23T17:41:58;12.90;1.00
4054;DHT22;2042;47.956;9.222;2023-03-23T17:44:24;12.80;1.00
4054;DHT22;2042;47.956;9.222;2023-03-23T17:46:50;12.70;1.00
4054;DHT22;2042;47.956;9.222;2023-03-23T17:49:16;12.70;1.00
4054;DHT22;2042;47.956;9.222;2023-03-23T17:51:42;12.60;1.00
4054;DHT22;2042;47.956;9.222;2023-03-23T17:54:08;12.60;1.00
4054;DHT22;2042;47.956;9.222;2023-03-23T17:56:34;12.60;1.00
4054;DHT22;2042;47.956;9.222;2023-03-23T17:58:59;12.60;1.00
4054;DHT22;2042;47.956;9.222;2023-03-23T18:01:25;12.60;1.00
4054;DHT22;2042;47.956;9.222;2023-03-23T18:03:51;12.60;1.00
4054;DHT22;2042;47.956;9.222;2023-03-23T18:06:17;12.60;1.00
4054;DHT22;2042;47.956;9.222;2023-03-23T18:08:42;12.60;1.00
4054;DHT22;2042;47.956;9.222;2023-03-23T18:11:08;12.60;1.00
4054;DHT22;2042;47.956;9.222;2023-03-23T18:13:35;12.50;1.00
4054;DHT22;2042;47.956;9.222;2023-03-23T18:16:01;12.50;1.00
4054;DHT22;2042;47.956;9.222;2023-03-23T18:18:28;12.40;1.00
4054;DHT22;2042;47.956;9.222;2023-03-23T18:21:05;12.20;1.00
4054;DHT22;2042;47.956;9.222;2023-03-23T18:23:32;12.20;1.00
4054;DHT22;2042;47.956;9.222;2023-03-23T18:26:01;12.20;1.00
4054;DHT22;2042;47.956;9.222;2023-03-23T18:28:28;12.20;1.00
4054;DHT22;2042;47.956;9.222;2023-03-23T18:30:54;12.10;1.00
4054;DHT22;2042;47.956;9.222;2023-03-23T18:33:20;12.00;1.00
4054;DHT22;2042;47.956;9.222;2023-03-23T18:35:46;11.90;1.00
4054;DHT22;2042;47.956;9.222;2023-03-23T18:38:13;11.80;1.00
4054;DHT22;2042;47.956;9.222;2023-03-23T18:40:43;11.90;1.00
4054;DHT22;2042;47.956;9.222;2023-03-23T18:43:09;11.90;1.00
4054;DHT22;2042;47.956;9.222;2023-03-23T18:45:35;11.90;1.00